sensor_id;sensor_type;location;lat;lon;timestamp;pressure;altitude;pressure_sealevel;temperature;humidity
5872;BME280;2962;51.312;7.378;2022-12-24T00:02:24;96491.50;;;8.44;100.00
5872;BME280;2962;51.312;7.378;2022-12-24T00:04:49;96505.81;;;8.41;100.00
5872;BME280;2962;51.312;7.378;2022-12-24T00:07:14;96501.63;;;8.47;100.00
5872;BME280;2962;51.312;7.378;2022-12-24T00:09:40;96514.84;;;8.55;100.00
5872;BME280;2962;51.312;7.378;2022-12-24T00:12:05;96514.34;;;8.39;100.00
5872;BME280;2962;51.312;7.378;2022-12-24T00:14:30;96516.16;;;8.28;100.00
5872;BME280;2962;51.312;7.378;2022-12-24T00:16:56;96518.09;;;8.24;100.00
5872;BME280;2962;51.312;7.378;2022-12-24T00:19:21;96518.94;;;8.35;100.00
5872;BME280;2962;51.312;7.378;2022-12-24T00:21:46;96524.00;;;8.37;100.00
5872;BME280;2962;51.312;7.378;2022-12-24T00:24:12;96532.97;;;8.41;100.00
5872;BME280;2962;51.312;7.378;2022-12-24T00:26:37;96528.25;;;8.34;100.00
5872;BME280;2962;51.312;7.378;2022-12-24T00:29:02;96529.28;;;8.22;100.00
5872;BME280;2962;51.312;7.378;2022-12-24T00:31:28;96544.44;;;8.23;100.00
5872;BME280;2962;51.312;7.378;2022-12-24T00:33:53;96550.53;;;8.13;100.00
5872;BME280;2962;51.312;7.378;2022-12-24T00:36:19;96524.97;;;8.14;100.00
5872;BME280;2962;51.312;7.378;2022-12-24T00:38:45;96545.13;;;8.13;100.00
5872;BME280;2962;51.312;7.378;2022-12-24T00:41:11;96566.88;;;8.20;100.00
5872;BME280;2962;51.312;7.378;2022-12-24T00:43:51;96549.13;;;8.26;100.00
5872;BME280;2962;51.312;7.378;2022-12-24T00:46:16;96550.19;;;8.18;100.00
5872;BME280;2962;51.312;7.378;2022-12-24T00:48:41;96539.78;;;8.24;100.00
5872;BME280;2962;51.312;7.378;2022-12-24T00:51:07;96538.59;;;8.21;100.00
5872;BME280;2962;51.312;7.378;2022-12-24T00:53:32;96560.84;;;8.38;100.00
5872;BME280;2962;51.312;7.378;2022-12-24T00:55:57;96553.38;;;8.27;100.00
5872;BME280;2962;51.312;7.378;2022-12-24T00:58:22;96553.78;;;8.29;100.00
5872;BME280;2962;51.312;7.378;2022-12-24T01:00:48;96568.50;;;8.28;100.00
5872;BME280;2962;51.312;7.378;2022-12-24T01:03:13;96563.81;;;8.25;100.00
5872;BME280;2962;51.312;7.378;2022-12-24T01:05:38;96559.56;;;8.24;100.00
5872;BME280;2962;51.312;7.378;2022-12-24T01:08:04;96575.81;;;8.21;100.00
5872;BME280;2962;51.312;7.378;2022-12-24T01:10:29;96570.41;;;8.24;100.00
5872;BME280;2962;51.312;7.378;2022-12-24T01:12:54;96585.16;;;8.23;100.00
5872;BME280;2962;51.312;7.378;2022-12-24T01:15:19;96589.34;;;8.17;100.00
5872;BME280;2962;51.312;7.378;2022-12-24T01:17:45;96569.28;;;8.29;100.00
5872;BME280;2962;51.312;7.378;2022-12-24T01:20:13;96570.13;;;8.37;100.00
5872;BME280;2962;51.312;7.378;2022-12-24T01:22:39;96582.13;;;8.32;100.00
5872;BME280;2962;51.312;7.378;2022-12-24T01:25:05;96607.16;;;8.18;100.00
5872;BME280;2962;51.312;7.378;2022-12-24T01:27:30;96591.84;;;8.37;100.00
5872;BME280;2962;51.312;7.378;2022-12-24T01:29:56;96596.56;;;8.40;100.00
5872;BME280;2962;51.312;7.378;2022-12-24T01:32:22;96619.78;;;8.37;100.00
5872;BME280;2962;51.312;7.378;2022-12-24T01:34:50;96608.88;;;8.33;100.00
5872;BME280;2962;51.312;7.378;2022-12-24T01:37:16;96620.50;;;8.30;100.00
5872;BME280;2962;51.312;7.378;2022-12-24T01:39:41;96629.50;;;8.38;100.00
5872;BME280;2962;51.312;7.378;2022-12-24T01:42:24;96609.38;;;8.43;100.00
5872;BME280;2962;51.312;7.378;2022-12-24T01:47:58;96640.66;;;8.33;100.00
5872;BME280;2962;51.312;7.378;2022-12-24T01:50:24;96629.34;;;8.24;100.00
5872;BME280;2962;51.312;7.378;2022-12-24T01:52:49;96635.94;;;8.23;100.00
5872;BME280;2962;51.312;7.378;2022-12-24T01:55:16;96614.09;;;8.12;100.00
5872;BME280;2962;51.312;7.378;2022-12-24T01:57:52;96629.75;;;8.29;100.00
5872;BME280;2962;51.312;7.378;2022-12-24T02:00:20;96645.81;;;8.38;100.00
5872;BME280;2962;51.312;7.378;2022-12-24T02:02:47;96642.19;;;8.30;100.00
5872;BME280;2962;51.312;7.378;2022-12-24T02:05:18;96636.75;;;8.27;100.00
5872;BME280;2962;51.312;7.378;2022-12-24T02:07:46;96637.50;;;8.27;100.00
5872;BME280;2962;51.312;7.378;2022-12-24T02:10:12;96641.38;;;8.26;100.00
5872;BME280;2962;51.312;7.378;2022-12-24T02:12:38;96642.53;;;8.25;100.00
5872;BME280;2962;51.312;7.378;2022-12-24T02:15:06;96648.81;;;8.33;100.00
5872;BME280;2962;51.312;7.378;2022-12-24T02:18:01;96662.41;;;8.37;100.00
5872;BME280;2962;51.312;7.378;2022-12-24T02:32:01;96688.56;;;8.18;100.00
5872;BME280;2962;51.312;7.378;2022-12-24T02:34:38;96697.13;;;8.20;100.00
5872;BME280;2962;51.312;7.378;2022-12-24T02:37:17;96690.19;;;8.23;100.00
5872;BME280;2962;51.312;7.378;2022-12-24T02:39:51;96684.94;;;8.07;100.00
5872;BME280;2962;51.312;7.378;2022-12-24T02:42:23;96706.38;;;8.16;100.00
5872;BME280;2962;51.312;7.378;2022-12-24T02:44:56;96690.88;;;8.16;100.00
5872;BME280;2962;51.312;7.378;2022-12-24T02:47:25;96709.88;;;8.16;100.00
5872;BME280;2962;51.312;7.378;2022-12-24T02:49:51;96714.31;;;8.31;100.00
5872;BME280;2962;51.312;7.378;2022-12-24T02:52:40;96717.78;;;8.28;100.00
5872;BME280;2962;51.312;7.378;2022-12-24T02:55:20;96706.09;;;8.24;100.00
5872;BME280;2962;51.312;7.378;2022-12-24T03:00:19;96719.75;;;8.31;100.00
5872;BME280;2962;51.312;7.378;2022-12-24T03:02:53;96718.97;;;8.31;100.00
5872;BME280;2962;51.312;7.378;2022-12-24T03:08:20;96717.00;;;8.28;100.00
5872;BME280;2962;51.312;7.378;2022-12-24T03:11:08;96722.72;;;8.19;100.00
5872;BME280;2962;51.312;7.378;2022-12-24T03:13:35;96718.09;;;8.23;100.00
5872;BME280;2962;51.312;7.378;2022-12-24T03:16:03;96729.13;;;8.38;100.00
5872;BME280;2962;51.312;7.378;2022-12-24T03:18:30;96739.81;;;8.23;100.00
5872;BME280;2962;51.312;7.378;2022-12-24T03:23:23;96728.41;;;8.41;100.00
5872;BME280;2962;51.312;7.378;2022-12-24T03:25:49;96712.75;;;8.30;100.00
5872;BME280;2962;51.312;7.378;2022-12-24T03:28:16;96710.13;;;8.38;100.00
5872;BME280;2962;51.312;7.378;2022-12-24T03:30:45;96739.22;;;8.37;100.00
5872;BME280;2962;51.312;7.378;2022-12-24T03:33:11;96718.63;;;8.36;100.00
5872;BME280;2962;51.312;7.378;2022-12-24T03:35:37;96738.13;;;8.42;100.00
5872;BME280;2962;51.312;7.378;2022-12-24T03:38:02;96732.72;;;8.45;100.00
5872;BME280;2962;51.312;7.378;2022-12-24T03:40:28;96724.94;;;8.44;100.00
5872;BME280;2962;51.312;7.378;2022-12-24T03:42:53;96745.25;;;8.23;100.00
5872;BME280;2962;51.312;7.378;2022-12-24T03:45:19;96741.81;;;8.30;100.00
5872;BME280;2962;51.312;7.378;2022-12-24T03:47:44;96747.25;;;8.30;100.00
5872;BME280;2962;51.312;7.378;2022-12-24T03:50:09;96734.53;;;8.34;100.00
5872;BME280;2962;51.312;7.378;2022-12-24T03:52:35;96739.00;;;8.19;100.00
5872;BME280;2962;51.312;7.378;2022-12-24T03:55:00;96720.53;;;8.32;100.00
5872;BME280;2962;51.312;7.378;2022-12-24T03:57:25;96743.50;;;8.38;100.00
5872;BME280;2962;51.312;7.378;2022-12-24T03:59:50;96741.13;;;8.37;100.00
5872;BME280;2962;51.312;7.378;2022-12-24T04:02:16;96724.22;;;8.47;100.00
5872;BME280;2962;51.312;7.378;2022-12-24T04:04:41;96731.38;;;8.32;100.00
5872;BME280;2962;51.312;7.378;2022-12-24T04:07:06;96741.06;;;8.33;100.00
5872;BME280;2962;51.312;7.378;2022-12-24T04:09:32;96756.50;;;8.25;100.00
5872;BME280;2962;51.312;7.378;2022-12-24T04:11:57;96742.88;;;8.22;100.00
5872;BME280;2962;51.312;7.378;2022-12-24T04:14:23;96744.63;;;8.37;100.00
5872;BME280;2962;51.312;7.378;2022-12-24T04:16:48;96746.34;;;8.19;100.00
5872;BME280;2962;51.312;7.378;2022-12-24T04:19:13;96750.25;;;8.21;100.00
5872;BME280;2962;51.312;7.378;2022-12-24T04:21:38;96743.03;;;8.02;100.00
5872;BME280;2962;51.312;7.378;2022-12-24T04:24:04;96757.13;;;8.12;100.00
5872;BME280;2962;51.312;7.378;2022-12-24T04:26:29;96765.59;;;8.10;100.00
5872;BME280;2962;51.312;7.378;2022-12-24T04:28:55;96777.94;;;8.04;100.00
5872;BME280;2962;51.312;7.378;2022-12-24T04:31:20;96764.97;;;8.20;100.00
5872;BME280;2962;51.312;7.378;2022-12-24T04:33:46;96766.81;;;8.13;100.00
5872;BME280;2962;51.312;7.378;2022-12-24T04:36:14;96768.84;;;8.19;100.00
5872;BME280;2962;51.312;7.378;2022-12-24T04:38:40;96767.69;;;8.20;100.00
5872;BME280;2962;51.312;7.378;2022-12-24T04:41:09;96777.06;;;8.26;100.00
5872;BME280;2962;51.312;7.378;2022-12-24T04:43:35;96787.50;;;8.24;100.00
5872;BME280;2962;51.312;7.378;2022-12-24T04:46:06;96784.38;;;8.22;100.00
5872;BME280;2962;51.312;7.378;2022-12-24T04:48:32;96780.44;;;8.16;100.00
5872;BME280;2962;51.312;7.378;2022-12-24T04:51:00;96761.47;;;8.20;100.00
5872;BME280;2962;51.312;7.378;2022-12-24T04:53:26;96766.94;;;8.23;100.00
5872;BME280;2962;51.312;7.378;2022-12-24T04:55:51;96783.22;;;8.23;100.00
5872;BME280;2962;51.312;7.378;2022-12-24T04:58:17;96784.06;;;8.27;100.00
5872;BME280;2962;51.312;7.378;2022-12-24T05:00:42;96785.16;;;8.23;100.00
5872;BME280;2962;51.312;7.378;2022-12-24T05:03:07;96797.19;;;8.25;100.00
5872;BME280;2962;51.312;7.378;2022-12-24T05:05:32;96794.41;;;8.18;100.00
5872;BME280;2962;51.312;7.378;2022-12-24T05:07:58;96785.47;;;8.18;100.00
5872;BME280;2962;51.312;7.378;2022-12-24T05:10:23;96796.28;;;8.14;100.00
5872;BME280;2962;51.312;7.378;2022-12-24T05:12:48;96793.47;;;8.07;100.00
5872;BME280;2962;51.312;7.378;2022-12-24T05:15:13;96776.16;;;8.15;100.00
5872;BME280;2962;51.312;7.378;2022-12-24T05:17:39;96797.53;;;8.20;100.00
5872;BME280;2962;51.312;7.378;2022-12-24T05:20:05;96799.91;;;8.25;100.00
5872;BME280;2962;51.312;7.378;2022-12-24T05:22:30;96811.09;;;8.20;100.00
5872;BME280;2962;51.312;7.378;2022-12-24T05:25:14;96800.56;;;8.15;100.00
5872;BME280;2962;51.312;7.378;2022-12-24T05:27:58;96815.59;;;8.09;100.00
5872;BME280;2962;51.312;7.378;2022-12-24T05:30:23;96799.41;;;8.16;100.00
5872;BME280;2962;51.312;7.378;2022-12-24T05:32:49;96805.34;;;8.25;100.00
5872;BME280;2962;51.312;7.378;2022-12-24T05:35:14;96806.06;;;8.22;100.00
5872;BME280;2962;51.312;7.378;2022-12-24T05:37:39;96821.06;;;8.13;100.00
5872;BME280;2962;51.312;7.378;2022-12-24T05:40:05;96817.88;;;8.07;100.00
5872;BME280;2962;51.312;7.378;2022-12-24T05:42:30;96833.38;;;8.06;100.00
5872;BME280;2962;51.312;7.378;2022-12-24T05:44:56;96816.81;;;8.12;100.00
5872;BME280;2962;51.312;7.378;2022-12-24T05:47:21;96817.53;;;8.08;100.00
5872;BME280;2962;51.312;7.378;2022-12-24T05:49:46;96823.25;;;8.00;100.00
5872;BME280;2962;51.312;7.378;2022-12-24T05:52:12;96839.50;;;8.00;100.00
5872;BME280;2962;51.312;7.378;2022-12-24T05:54:37;96830.16;;;7.97;100.00
5872;BME280;2962;51.312;7.378;2022-12-24T05:57:02;96833.38;;;8.06;100.00
5872;BME280;2962;51.312;7.378;2022-12-24T05:59:27;96822.44;;;7.99;100.00
5872;BME280;2962;51.312;7.378;2022-12-24T06:01:53;96813.94;;;8.01;100.00
5872;BME280;2962;51.312;7.378;2022-12-24T06:04:18;96828.84;;;8.14;100.00
5872;BME280;2962;51.312;7.378;2022-12-24T06:06:43;96828.66;;;8.00;100.00
5872;BME280;2962;51.312;7.378;2022-12-24T06:09:08;96828.72;;;8.03;100.00
5872;BME280;2962;51.312;7.378;2022-12-24T06:11:34;96837.34;;;8.13;100.00
5872;BME280;2962;51.312;7.378;2022-12-24T06:13:59;96835.03;;;8.11;100.00
5872;BME280;2962;51.312;7.378;2022-12-24T06:16:25;96837.47;;;8.20;100.00
5872;BME280;2962;51.312;7.378;2022-12-24T06:18:51;96854.31;;;8.06;100.00
5872;BME280;2962;51.312;7.378;2022-12-24T06:21:17;96824.63;;;7.90;100.00
5872;BME280;2962;51.312;7.378;2022-12-24T06:23:43;96845.72;;;8.00;100.00
5872;BME280;2962;51.312;7.378;2022-12-24T06:26:11;96860.63;;;8.14;100.00
5872;BME280;2962;51.312;7.378;2022-12-24T06:28:37;96868.34;;;8.12;100.00
5872;BME280;2962;51.312;7.378;2022-12-24T06:31:05;96875.66;;;8.07;100.00
5872;BME280;2962;51.312;7.378;2022-12-24T06:33:32;96884.63;;;8.12;100.00
5872;BME280;2962;51.312;7.378;2022-12-24T06:35:58;96865.38;;;8.20;100.00
5872;BME280;2962;51.312;7.378;2022-12-24T06:38:24;96861.50;;;8.21;100.00
5872;BME280;2962;51.312;7.378;2022-12-24T06:40:49;96854.13;;;8.22;100.00
5872;BME280;2962;51.312;7.378;2022-12-24T06:43:15;96872.56;;;8.09;100.00
5872;BME280;2962;51.312;7.378;2022-12-24T06:45:45;96865.81;;;8.26;100.00
5872;BME280;2962;51.312;7.378;2022-12-24T06:48:10;96865.72;;;8.42;100.00
5872;BME280;2962;51.312;7.378;2022-12-24T06:50:36;96875.50;;;8.23;100.00
5872;BME280;2962;51.312;7.378;2022-12-24T06:53:01;96884.97;;;8.10;100.00
5872;BME280;2962;51.312;7.378;2022-12-24T06:55:27;96879.34;;;8.22;100.00
5872;BME280;2962;51.312;7.378;2022-12-24T06:57:52;96879.50;;;8.33;100.00
5872;BME280;2962;51.312;7.378;2022-12-24T07:00:18;96868.88;;;8.21;100.00
5872;BME280;2962;51.312;7.378;2022-12-24T07:02:44;96890.19;;;8.22;100.00
5872;BME280;2962;51.312;7.378;2022-12-24T07:05:13;96896.84;;;8.25;100.00
5872;BME280;2962;51.312;7.378;2022-12-24T07:07:41;96897.22;;;8.23;100.00
5872;BME280;2962;51.312;7.378;2022-12-24T07:10:08;96904.25;;;8.28;100.00
5872;BME280;2962;51.312;7.378;2022-12-24T07:12:34;96906.19;;;8.27;100.00
5872;BME280;2962;51.312;7.378;2022-12-24T07:15:00;96906.41;;;8.15;100.00
5872;BME280;2962;51.312;7.378;2022-12-24T07:17:25;96904.19;;;8.24;100.00
5872;BME280;2962;51.312;7.378;2022-12-24T07:19:50;96912.78;;;8.30;100.00
5872;BME280;2962;51.312;7.378;2022-12-24T07:22:15;96922.47;;;8.27;100.00
5872;BME280;2962;51.312;7.378;2022-12-24T07:24:41;96912.13;;;8.37;100.00
5872;BME280;2962;51.312;7.378;2022-12-24T07:27:06;96917.34;;;8.22;100.00
5872;BME280;2962;51.312;7.378;2022-12-24T07:29:32;96890.91;;;8.16;100.00
5872;BME280;2962;51.312;7.378;2022-12-24T07:31:58;96915.81;;;8.25;100.00
5872;BME280;2962;51.312;7.378;2022-12-24T07:34:23;96901.09;;;8.26;100.00
5872;BME280;2962;51.312;7.378;2022-12-24T07:36:48;96919.81;;;8.31;100.00
5872;BME280;2962;51.312;7.378;2022-12-24T07:39:14;96919.19;;;8.41;100.00
5872;BME280;2962;51.312;7.378;2022-12-24T07:41:39;96914.13;;;8.40;100.00
5872;BME280;2962;51.312;7.378;2022-12-24T07:44:04;96923.78;;;8.37;100.00
5872;BME280;2962;51.312;7.378;2022-12-24T07:46:29;96917.94;;;8.35;100.00
5872;BME280;2962;51.312;7.378;2022-12-24T07:48:55;96925.00;;;8.40;100.00
5872;BME280;2962;51.312;7.378;2022-12-24T07:51:20;96952.31;;;8.27;100.00
5872;BME280;2962;51.312;7.378;2022-12-24T07:53:45;96946.56;;;8.32;100.00
5872;BME280;2962;51.312;7.378;2022-12-24T07:56:14;96939.00;;;8.42;100.00
5872;BME280;2962;51.312;7.378;2022-12-24T07:58:40;96939.03;;;8.45;100.00
5872;BME280;2962;51.312;7.378;2022-12-24T08:01:06;96934.13;;;8.54;100.00
5872;BME280;2962;51.312;7.378;2022-12-24T08:03:32;96942.13;;;8.44;100.00
5872;BME280;2962;51.312;7.378;2022-12-24T08:05:57;96947.13;;;8.42;100.00
5872;BME280;2962;51.312;7.378;2022-12-24T08:08:23;96947.94;;;8.19;100.00
5872;BME280;2962;51.312;7.378;2022-12-24T08:10:48;96969.00;;;8.29;100.00
5872;BME280;2962;51.312;7.378;2022-12-24T08:13:14;96961.63;;;8.26;100.00
5872;BME280;2962;51.312;7.378;2022-12-24T08:15:39;96962.13;;;8.36;100.00
5872;BME280;2962;51.312;7.378;2022-12-24T08:18:04;96969.25;;;8.44;100.00
5872;BME280;2962;51.312;7.378;2022-12-24T08:20:30;96971.78;;;8.33;100.00
5872;BME280;2962;51.312;7.378;2022-12-24T08:22:55;96984.56;;;8.32;100.00
5872;BME280;2962;51.312;7.378;2022-12-24T08:25:20;96975.00;;;8.39;100.00
5872;BME280;2962;51.312;7.378;2022-12-24T08:27:46;96964.78;;;8.32;100.00
5872;BME280;2962;51.312;7.378;2022-12-24T08:30:12;96993.22;;;8.38;100.00
5872;BME280;2962;51.312;7.378;2022-12-24T08:32:37;96969.00;;;8.29;100.00
5872;BME280;2962;51.312;7.378;2022-12-24T08:35:03;96983.72;;;8.28;100.00
5872;BME280;2962;51.312;7.378;2022-12-24T08:37:28;96997.69;;;8.27;100.00
5872;BME280;2962;51.312;7.378;2022-12-24T08:39:54;97009.91;;;8.40;100.00
5872;BME280;2962;51.312;7.378;2022-12-24T08:42:19;97002.72;;;8.28;100.00
5872;BME280;2962;51.312;7.378;2022-12-24T08:44:44;97004.28;;;8.29;100.00
5872;BME280;2962;51.312;7.378;2022-12-24T08:47:10;97026.25;;;8.44;100.00
5872;BME280;2962;51.312;7.378;2022-12-24T08:49:35;97028.56;;;8.42;100.00
5872;BME280;2962;51.312;7.378;2022-12-24T08:52:00;97020.13;;;8.47;100.00
5872;BME280;2962;51.312;7.378;2022-12-24T08:54:26;97011.72;;;8.32;100.00
5872;BME280;2962;51.312;7.378;2022-12-24T08:56:51;97013.78;;;8.39;100.00
5872;BME280;2962;51.312;7.378;2022-12-24T08:59:16;97034.78;;;8.42;100.00
5872;BME280;2962;51.312;7.378;2022-12-24T09:01:42;97015.03;;;8.45;100.00
5872;BME280;2962;51.312;7.378;2022-12-24T09:04:07;97030.91;;;8.43;100.00
5872;BME280;2962;51.312;7.378;2022-12-24T09:06:34;97027.94;;;8.52;100.00
5872;BME280;2962;51.312;7.378;2022-12-24T09:08:59;97030.97;;;8.47;100.00
5872;BME280;2962;51.312;7.378;2022-12-24T09:11:25;97027.94;;;8.52;100.00
5872;BME280;2962;51.312;7.378;2022-12-24T09:13:50;97043.91;;;8.57;100.00
5872;BME280;2962;51.312;7.378;2022-12-24T09:16:15;97035.53;;;8.66;100.00
5872;BME280;2962;51.312;7.378;2022-12-24T09:18:41;97046.06;;;8.71;100.00
5872;BME280;2962;51.312;7.378;2022-12-24T09:21:10;97058.34;;;8.61;100.00
5872;BME280;2962;51.312;7.378;2022-12-24T09:23:39;97057.16;;;8.59;100.00
5872;BME280;2962;51.312;7.378;2022-12-24T09:26:09;97101.00;;;8.61;100.00
5872;BME280;2962;51.312;7.378;2022-12-24T09:28:36;97062.88;;;8.53;100.00
5872;BME280;2962;51.312;7.378;2022-12-24T09:31:03;97087.25;;;8.73;100.00
5872;BME280;2962;51.312;7.378;2022-12-24T09:33:30;97088.31;;;8.68;100.00
5872;BME280;2962;51.312;7.378;2022-12-24T09:35:56;97080.16;;;8.68;100.00
5872;BME280;2962;51.312;7.378;2022-12-24T09:38:22;97089.47;;;8.67;100.00
5872;BME280;2962;51.312;7.378;2022-12-24T09:40:49;97092.84;;;8.61;100.00
5872;BME280;2962;51.312;7.378;2022-12-24T09:43:20;97102.66;;;8.65;100.00
5872;BME280;2962;51.312;7.378;2022-12-24T09:48:23;97118.81;;;8.58;100.00
5872;BME280;2962;51.312;7.378;2022-12-24T09:50:56;97099.59;;;8.70;100.00
5872;BME280;2962;51.312;7.378;2022-12-24T09:53:32;97101.84;;;8.65;100.00
5872;BME280;2962;51.312;7.378;2022-12-24T09:56:02;97127.38;;;8.60;100.00
5872;BME280;2962;51.312;7.378;2022-12-24T09:58:36;97116.63;;;8.67;100.00
5872;BME280;2962;51.312;7.378;2022-12-24T10:01:03;97133.50;;;8.80;100.00
5872;BME280;2962;51.312;7.378;2022-12-24T10:03:29;97122.97;;;8.75;100.00
5872;BME280;2962;51.312;7.378;2022-12-24T10:11:49;97125.47;;;8.87;100.00
5872;BME280;2962;51.312;7.378;2022-12-24T10:14:43;97133.47;;;9.03;100.00
5872;BME280;2962;51.312;7.378;2022-12-24T10:17:28;97122.91;;;8.71;100.00
5872;BME280;2962;51.312;7.378;2022-12-24T10:20:43;97119.41;;;8.71;100.00
5872;BME280;2962;51.312;7.378;2022-12-24T10:22:52;97141.72;;;8.61;100.00
5872;BME280;2962;51.312;7.378;2022-12-24T10:25:29;97143.06;;;8.70;100.00
5872;BME280;2962;51.312;7.378;2022-12-24T10:27:58;97137.81;;;8.58;100.00
5872;BME280;2962;51.312;7.378;2022-12-24T10:30:25;97143.78;;;8.67;100.00
5872;BME280;2962;51.312;7.378;2022-12-24T10:32:52;97137.44;;;8.60;100.00
5872;BME280;2962;51.312;7.378;2022-12-24T10:35:28;97150.78;;;8.68;100.00
5872;BME280;2962;51.312;7.378;2022-12-24T10:37:56;97147.91;;;8.58;100.00
5872;BME280;2962;51.312;7.378;2022-12-24T10:40:42;97161.03;;;8.55;100.00
5872;BME280;2962;51.312;7.378;2022-12-24T10:43:17;97158.25;;;8.52;100.00
5872;BME280;2962;51.312;7.378;2022-12-24T10:45:45;97145.97;;;8.58;100.00
5872;BME280;2962;51.312;7.378;2022-12-24T10:48:19;97151.16;;;8.44;100.00
5872;BME280;2962;51.312;7.378;2022-12-24T10:50:59;97162.13;;;8.51;100.00
5872;BME280;2962;51.312;7.378;2022-12-24T10:53:37;97149.72;;;8.50;100.00
5872;BME280;2962;51.312;7.378;2022-12-24T10:56:06;97155.16;;;8.50;100.00
5872;BME280;2962;51.312;7.378;2022-12-24T10:58:34;97150.38;;;8.43;100.00
5872;BME280;2962;51.312;7.378;2022-12-24T11:01:00;97143.78;;;8.44;100.00
5872;BME280;2962;51.312;7.378;2022-12-24T11:03:32;97160.66;;;8.57;100.00
5872;BME280;2962;51.312;7.378;2022-12-24T11:06:00;97141.06;;;8.44;100.00
5872;BME280;2962;51.312;7.378;2022-12-24T11:08:31;97134.47;;;8.68;100.00
5872;BME280;2962;51.312;7.378;2022-12-24T11:11:17;97144.44;;;9.10;100.00
5872;BME280;2962;51.312;7.378;2022-12-24T11:16:27;97131.72;;;9.44;100.00
5872;BME280;2962;51.312;7.378;2022-12-24T11:18:56;97110.22;;;9.05;100.00
5872;BME280;2962;51.312;7.378;2022-12-24T11:23:57;97121.72;;;8.95;100.00
5872;BME280;2962;51.312;7.378;2022-12-24T11:26:27;97139.50;;;8.89;100.00
5872;BME280;2962;51.312;7.378;2022-12-24T11:29:19;97116.75;;;9.01;100.00
5872;BME280;2962;51.312;7.378;2022-12-24T11:31:45;97126.38;;;9.21;100.00
5872;BME280;2962;51.312;7.378;2022-12-24T11:36:46;97107.44;;;9.28;100.00
5872;BME280;2962;51.312;7.378;2022-12-24T11:39:21;97131.47;;;9.23;100.00
5872;BME280;2962;51.312;7.378;2022-12-24T11:41:48;97091.16;;;9.02;100.00
5872;BME280;2962;51.312;7.378;2022-12-24T11:44:23;97111.41;;;9.35;100.00
5872;BME280;2962;51.312;7.378;2022-12-24T11:46:48;97118.47;;;9.39;100.00
5872;BME280;2962;51.312;7.378;2022-12-24T11:49:24;97118.00;;;9.34;100.00
5872;BME280;2962;51.312;7.378;2022-12-24T11:52:16;97112.63;;;9.11;100.00
5872;BME280;2962;51.312;7.378;2022-12-24T11:55:13;97118.50;;;9.13;100.00
5872;BME280;2962;51.312;7.378;2022-12-24T12:01:01;97127.31;;;9.06;100.00
5872;BME280;2962;51.312;7.378;2022-12-24T12:03:38;97127.53;;;9.20;100.00
5872;BME280;2962;51.312;7.378;2022-12-24T12:06:58;97125.19;;;9.19;100.00
5872;BME280;2962;51.312;7.378;2022-12-24T12:09:19;97127.75;;;9.08;100.00
5872;BME280;2962;51.312;7.378;2022-12-24T12:11:51;97133.13;;;9.04;100.00
5872;BME280;2962;51.312;7.378;2022-12-24T12:14:21;97129.75;;;9.11;100.00
5872;BME280;2962;51.312;7.378;2022-12-24T12:17:26;97130.34;;;9.01;100.00
5872;BME280;2962;51.312;7.378;2022-12-24T12:22:56;97134.28;;;9.03;100.00
5872;BME280;2962;51.312;7.378;2022-12-24T12:25:32;97140.47;;;9.57;100.00
5872;BME280;2962;51.312;7.378;2022-12-24T12:28:01;97131.84;;;9.51;100.00
5872;BME280;2962;51.312;7.378;2022-12-24T12:30:28;97139.72;;;9.60;100.00
5872;BME280;2962;51.312;7.378;2022-12-24T12:32:59;97144.47;;;9.67;100.00
5872;BME280;2962;51.312;7.378;2022-12-24T12:35:35;97141.22;;;9.88;100.00
5872;BME280;2962;51.312;7.378;2022-12-24T12:38:08;97142.28;;;10.47;100.00
5872;BME280;2962;51.312;7.378;2022-12-24T12:48:56;97151.53;;;10.39;100.00
5872;BME280;2962;51.312;7.378;2022-12-24T12:56:44;97160.59;;;9.83;100.00
5872;BME280;2962;51.312;7.378;2022-12-24T12:59:40;97153.16;;;9.79;100.00
5872;BME280;2962;51.312;7.378;2022-12-24T13:02:17;97153.34;;;9.94;100.00
5872;BME280;2962;51.312;7.378;2022-12-24T13:11:04;97185.59;;;9.92;100.00
5872;BME280;2962;51.312;7.378;2022-12-24T13:13:51;97172.78;;;9.92;100.00
5872;BME280;2962;51.312;7.378;2022-12-24T13:16:56;97187.81;;;9.83;100.00
5872;BME280;2962;51.312;7.378;2022-12-24T13:22:13;97166.38;;;9.77;100.00
5872;BME280;2962;51.312;7.378;2022-12-24T13:24:39;97171.66;;;9.67;100.00
5872;BME280;2962;51.312;7.378;2022-12-24T13:27:29;97185.75;;;9.72;100.00
5872;BME280;2962;51.312;7.378;2022-12-24T13:32:58;97181.13;;;9.76;100.00
5872;BME280;2962;51.312;7.378;2022-12-24T13:35:30;97191.34;;;9.87;100.00
5872;BME280;2962;51.312;7.378;2022-12-24T13:40:54;97202.56;;;9.82;100.00
5872;BME280;2962;51.312;7.378;2022-12-24T13:43:20;97187.25;;;10.00;100.00
5872;BME280;2962;51.312;7.378;2022-12-24T13:45:49;97185.16;;;10.54;100.00
5872;BME280;2962;51.312;7.378;2022-12-24T13:48:28;97183.63;;;10.22;100.00
5872;BME280;2962;51.312;7.378;2022-12-24T13:50:57;97191.19;;;10.06;100.00
5872;BME280;2962;51.312;7.378;2022-12-24T13:53:41;97201.06;;;9.88;100.00
5872;BME280;2962;51.312;7.378;2022-12-24T13:58:35;97192.69;;;9.70;100.00
5872;BME280;2962;51.312;7.378;2022-12-24T14:01:12;97202.56;;;9.82;100.00
5872;BME280;2962;51.312;7.378;2022-12-24T14:03:48;97194.16;;;9.94;100.00
5872;BME280;2962;51.312;7.378;2022-12-24T14:06:29;97193.81;;;9.99;100.00
5872;BME280;2962;51.312;7.378;2022-12-24T14:09:17;97198.09;;;9.96;100.00
5872;BME280;2962;51.312;7.378;2022-12-24T14:12:14;97209.22;;;9.84;100.00
5872;BME280;2962;51.312;7.378;2022-12-24T14:14:41;97206.53;;;9.88;100.00
5872;BME280;2962;51.312;7.378;2022-12-24T14:17:24;97194.81;;;9.84;100.00
5872;BME280;2962;51.312;7.378;2022-12-24T14:19:55;97215.13;;;9.63;100.00
5872;BME280;2962;51.312;7.378;2022-12-24T14:24:56;97206.81;;;9.52;100.00
5872;BME280;2962;51.312;7.378;2022-12-24T14:27:35;97219.28;;;9.53;100.00
5872;BME280;2962;51.312;7.378;2022-12-24T14:30:23;97226.63;;;9.53;100.00
5872;BME280;2962;51.312;7.378;2022-12-24T14:32:51;97223.91;;;9.53;100.00
5872;BME280;2962;51.312;7.378;2022-12-24T14:35:25;97220.25;;;9.98;100.00
5872;BME280;2962;51.312;7.378;2022-12-24T14:37:59;97222.41;;;10.12;100.00
5872;BME280;2962;51.312;7.378;2022-12-24T14:40:31;97216.28;;;10.56;100.00
5872;BME280;2962;51.312;7.378;2022-12-24T14:43:19;97220.19;;;10.55;100.00
5872;BME280;2962;51.312;7.378;2022-12-24T14:46:16;97238.78;;;10.16;100.00
5872;BME280;2962;51.312;7.378;2022-12-24T14:48:52;97238.72;;;10.12;100.00
5872;BME280;2962;51.312;7.378;2022-12-24T14:51:43;97253.34;;;10.00;100.00
5872;BME280;2962;51.312;7.378;2022-12-24T14:59:52;97268.09;;;9.20;100.00